Hauptseite
METAR-TAF:

METAR-TAF

Flughäfen :

London Oxford Airport

Oxford, England

Breite: 51-50-13N, Länge: 1-19-12W, Höhe: 82 m

Beobachtung

Neuester Wetterbericht von vor 5 Stunden und 33 Minuten, um 21:20 UTC
Wind 4 kt aus Südwest
Temperatur 16°C
Luftfeuchtigkeit 72%
Luftdruck 1017 hPa
Sichtweite 10 km oder mehr
keine Wolken unter 1500 m und keine Kumulonimbus oder Gewitterwolken

METAR: EGTK 172120Z 22004KT CAVOK 16/11 Q1017

Zeit: 03:53 (02:53 UTC)

Prognose

Neuester Wetterbericht von vor 9 Stunden und 53 Minuten, um 17:00 UTC
Gültige Prognose vom 17 um 18 UTC bis 17 um 22 UTC
Wind 9 kt aus Südwest
Sichtweite 10 km oder mehr
Aufgelockert bewölkt in der Höhe von 4500 ft

TAF: EGTK 171700Z 1718/1722 23009KT 9999 SCT045

Wetterbeobachtungen und Prognosen von mehr als 4000 Flughäfen (METAR und TAF Bericht).

Die verfügbaren Stationen werden durch gelbe und rote Markierungen auf der Karte dargestellt.

Führen Sie die Maus auf sie, um den Namen der Station zu sehen.

Darauf klicken, um die Beobachtung von Wetterbeobachtungen und Prognosen zu sehen.

Um die Karte zu ändern : klicken Sie auf den grünen Tasten mit einem schwarzen Kreuz Zum Vergrößern, auf den grünen Button mit einem Gedankenstrich zu verkleinern, oder auf die grünen Pfeile für benachbarte Karten.


METAR-TAF: